Time;durP1;ratioP1;P1;durP2;ratioP2;P2;SDS_P1;SDS_P2;PMS_P1;PMS_P2;Temp;Humidity;BMP_temperature;BMP_pressure;BME280_temperature;BME280_humidity;BME280_pressure;Samples;Min_cycle;Max_cycle;Signal;HPM_P1;HPM_P2
2022/07/27 00:00:19;;;;;;;;;;;;;;;15.11;65.14;102154.94;4981688;28;96787;-34
2022/07/27 00:02:44;;;;;;;;;;;;;;;15.07;65.03;102156.09;4978787;28;99308;-34
2022/07/27 00:05:09;;;;;;;;;;;;;;;15.05;65.06;102149.84;4977600;28;97224;-34
2022/07/27 00:07:34;;;;;;;;;;;;;;;15.03;64.46;102149.06;4977250;28;96494;-34
2022/07/27 00:10:00;;;;;;;;;;;;;;;15.02;64.93;102155.50;4977610;28;96893;-34
2022/07/27 00:12:25;;;;;;;;;;;;;;;15.03;65.04;102151.78;4977471;28;97975;-33
2022/07/27 00:14:50;;;;;;;;;;;;;;;15.02;64.73;102150.91;4977204;28;99356;-34
2022/07/27 00:17:21;;;;;;;;;;;;;;;15.03;65.53;102151.78;4977802;28;96509;-34
2022/07/27 00:19:47;;;;;;;;;;;;;;;14.99;65.97;102148.38;4976335;28;96761;-34
2022/07/27 00:22:12;;;;;;;;;;;;;;;14.97;65.78;102150.31;4977548;28;97340;-34
2022/07/27 00:24:37;;;;;;;;;;;;;;;14.97;65.93;102144.84;4977308;28;98976;-35
2022/07/27 00:27:02;;;;;;;;;;;;;;;14.96;64.85;102155.84;4977362;28;96522;-33
2022/07/27 00:29:28;;;;;;;;;;;;;;;14.93;66.02;102156.91;4977215;28;96891;-34
2022/07/27 00:31:53;;;;;;;;;;;;;;;14.92;64.91;102162.44;4976419;28;99571;-33
2022/07/27 00:34:18;;;;;;;;;;;;;;;14.87;66.23;102151.78;4977143;28;97708;-33
2022/07/27 00:36:43;;;;;;;;;;;;;;;14.86;65.76;102150.91;4977552;28;96592;-33
2022/07/27 00:39:08;;;;;;;;;;;;;;;14.86;66.14;102155.50;4977094;28;96868;-34
2022/07/27 00:41:33;;;;;;;;;;;;;;;14.86;65.89;102158.25;4977289;28;100363;-33
2022/07/27 00:43:59;;;;;;;;;;;;;;;14.85;66.43;102156.50;4976542;28;98146;-34
2022/07/27 00:46:26;;;;;;;;;;;;;;;14.86;66.81;102147.31;4977380;28;96594;-34
2022/07/27 00:48:52;;;;;;;;;;;;;;;14.87;66.17;102146.34;4976304;28;96598;-34
2022/07/27 00:51:18;;;;;;;;;;;;;;;14.89;65.98;102146.25;4975440;28;100416;-33
2022/07/27 00:53:44;;;;;;;;;;;;;;;14.92;66.57;102148.81;4975438;28;100858;-33
2022/07/27 00:56:10;;;;;;;;;;;;;;;14.94;66.30;102152.31;4975186;28;96625;-33
2022/07/27 00:58:36;;;;;;;;;;;;;;;14.95;65.88;102144.06;4976595;28;96890;-34
2022/07/27 01:01:02;;;;;;;;;;;;;;;14.94;66.02;102144.13;4976733;28;97937;-33
2022/07/27 01:03:28;;;;;;;;;;;;;;;14.94;65.33;102139.56;4976398;28;99196;-33
2022/07/27 01:05:53;;;;;;;;;;;;;;;14.95;66.01;102145.91;4977267;28;96715;-33
2022/07/27 01:08:18;;;;;;;;;;;;;;;14.94;66.16;102139.56;4976656;28;97062;-33
2022/07/27 01:10:44;;;;;;;;;;;;;;;14.94;65.24;102135.94;4976696;28;97469;-33
2022/07/27 01:13:09;;;;;;;;;;;;;;;14.92;65.76;102140.63;4976860;28;97727;-34
2022/07/27 01:15:37;;;;;;;;;;;;;;;14.90;65.76;102143.47;4976339;28;96491;-33
2022/07/27 01:18:02;;;;;;;;;;;;;;;14.89;66.07;102138.94;4976807;28;96631;-33
2022/07/27 01:20:27;;;;;;;;;;;;;;;14.86;66.10;102144.59;4975792;28;99242;-33
2022/07/27 01:22:53;;;;;;;;;;;;;;;14.82;65.56;102143.00;4976068;28;99003;-33
2022/07/27 01:25:18;;;;;;;;;;;;;;;14.79;66.50;102132.28;4975179;28;96809;-33
2022/07/27 01:27:43;;;;;;;;;;;;;;;14.75;66.05;102137.03;4976495;28;96909;-33
2022/07/27 01:30:28;;;;;;;;;;;;;;;14.74;66.33;102135.28;4976119;28;99277;-33
2022/07/27 01:33:00;;;;;;;;;;;;;;;14.75;66.71;102142.47;4976020;28;99242;-33
2022/07/27 01:35:26;;;;;;;;;;;;;;;14.72;66.75;102136.34;4975098;28;96845;-33
2022/07/27 01:37:51;;;;;;;;;;;;;;;14.70;66.40;102130.97;4976849;28;96993;-33
2022/07/27 01:40:38;;;;;;;;;;;;;;;14.67;66.50;102133.88;4975963;28;97886;-33
2022/07/27 01:43:04;;;;;;;;;;;;;;;14.65;67.22;102133.09;4975908;28;98900;-33
2022/07/27 01:45:29;;;;;;;;;;;;;;;14.59;66.33;102136.19;4975394;28;97081;-33
2022/07/27 01:47:54;;;;;;;;;;;;;;;14.58;66.90;102131.69;4976368;28;96811;-33
2022/07/27 01:50:19;;;;;;;;;;;;;;;14.58;67.37;102129.84;4975994;28;101342;-33
2022/07/27 01:52:45;;;;;;;;;;;;;;;14.55;66.69;102123.69;4975710;28;97770;-34
2022/07/27 01:55:10;;;;;;;;;;;;;;;14.55;66.44;102127.28;4976268;28;96442;-34
2022/07/27 01:57:35;;;;;;;;;;;;;;;14.52;66.88;102134.75;4975689;28;96840;-33
2022/07/27 02:00:02;;;;;;;;;;;;;;;14.47;66.83;102132.28;4975940;28;98139;-33
2022/07/27 02:02:27;;;;;;;;;;;;;;;14.47;67.04;102132.28;4976014;28;99079;-33
2022/07/27 02:04:52;;;;;;;;;;;;;;;14.46;66.50;102130.50;4976099;28;96564;-33
2022/07/27 02:07:17;;;;;;;;;;;;;;;14.38;67.13;102128.22;4975322;28;96836;-34
2022/07/27 02:09:44;;;;;;;;;;;;;;;14.38;67.53;102121.91;4975565;28;97261;-33
2022/07/27 02:14:53;;;;;;;;;;;;;;;14.34;66.82;102125.75;4976088;28;96526;-33
2022/07/27 02:17:18;;;;;;;;;;;;;;;14.30;68.36;102130.53;4975704;28;96920;-34
2022/07/27 02:19:44;;;;;;;;;;;;;;;14.27;68.69;102122.50;4975459;28;97879;-34
2022/07/27 02:22:09;;;;;;;;;;;;;;;14.25;67.96;102124.44;4974747;28;96992;-34
2022/07/27 02:24:36;;;;;;;;;;;;;;;14.23;68.11;102118.22;4975746;28;96579;-34
2022/07/27 02:27:01;;;;;;;;;;;;;;;14.22;67.82;102116.44;4975467;28;96686;-34
2022/07/27 02:29:27;;;;;;;;;;;;;;;14.20;68.14;102118.34;4975625;28;97911;-34
2022/07/27 02:31:52;;;;;;;;;;;;;;;14.18;68.12;102117.56;4975247;28;101583;-34
2022/07/27 02:34:17;;;;;;;;;;;;;;;14.16;68.19;102119.53;4975339;28;96624;-34
2022/07/27 02:36:42;;;;;;;;;;;;;;;14.15;68.27;102121.34;4975423;28;96871;-34
2022/07/27 02:39:07;;;;;;;;;;;;;;;14.13;67.71;102112.38;4975389;28;97335;-34
2022/07/27 02:41:33;;;;;;;;;;;;;;;14.10;68.50;102117.13;4975434;28;97471;-34
2022/07/27 02:43:58;;;;;;;;;;;;;;;14.07;68.71;102106.41;4974728;28;96773;-34
2022/07/27 02:46:23;;;;;;;;;;;;;;;14.06;68.33;102110.97;4975817;28;96617;-34
2022/07/27 02:48:48;;;;;;;;;;;;;;;14.03;69.45;102109.28;4975286;28;97505;-34
2022/07/27 02:51:14;;;;;;;;;;;;;;;14.02;68.30;102115.72;4975411;28;97224;-34
2022/07/27 02:53:39;;;;;;;;;;;;;;;14.01;68.57;102110.34;4975439;28;96641;-34
2022/07/27 02:56:05;;;;;;;;;;;;;;;13.97;69.63;102112.38;4975556;28;96851;-34
2022/07/27 02:58:30;;;;;;;;;;;;;;;13.97;69.35;102114.22;4974171;28;98767;-34
2022/07/27 03:00:55;;;;;;;;;;;;;;;13.93;69.31;102113.50;4975183;28;97421;-34
2022/07/27 03:03:20;;;;;;;;;;;;;;;13.93;68.99;102105.31;4975395;28;96473;-33
2022/07/27 03:05:47;;;;;;;;;;;;;;;13.92;69.27;102109.03;4975386;28;96859;-34
2022/07/27 03:08:12;;;;;;;;;;;;;;;13.94;68.74;102111.66;4973640;28;101267;-34
2022/07/27 03:10:37;;;;;;;;;;;;;;;13.90;69.59;102105.50;4974973;28;98204;-34
2022/07/27 03:13:03;;;;;;;;;;;;;;;13.91;70.36;102112.69;4975039;28;96456;-33
2022/07/27 03:15:28;;;;;;;;;;;;;;;13.91;68.85;102107.25;4976056;28;96733;-34
2022/07/27 03:17:53;;;;;;;;;;;;;;;13.94;69.65;102114.38;4974942;28;97950;-34
2022/07/27 03:20:18;;;;;;;;;;;;;;;13.96;70.14;102112.44;4974568;28;99599;-34
2022/07/27 03:22:44;;;;;;;;;;;;;;;13.97;69.34;102108.78;4974640;28;96571;-34
2022/07/27 03:25:09;;;;;;;;;;;;;;;13.98;68.92;102114.13;4975173;28;96950;-34
2022/07/27 03:27:34;;;;;;;;;;;;;;;13.98;69.44;102108.66;4974554;28;99935;-34
2022/07/27 03:30:00;;;;;;;;;;;;;;;13.98;69.69;102111.41;4974760;28;97758;-34
2022/07/27 03:32:25;;;;;;;;;;;;;;;13.99;69.50;102118.63;4975216;28;96791;-33
2022/07/27 03:34:50;;;;;;;;;;;;;;;14.02;68.72;102106.66;4974890;28;96950;-34
2022/07/27 03:37:17;;;;;;;;;;;;;;;14.05;69.24;102108.34;4974640;28;99253;-34
2022/07/27 03:39:43;;;;;;;;;;;;;;;14.07;70.13;102112.75;4977576;28;99245;-33
2022/07/27 03:42:08;;;;;;;;;;;;;;;14.08;68.81;102110.88;4978481;28;96750;-34
2022/07/27 03:44:33;;;;;;;;;;;;;;;14.13;68.46;102120.53;4977660;28;96927;-33
2022/07/27 03:46:58;;;;;;;;;;;;;;;14.18;68.86;102125.75;4977480;28;97882;-33
2022/07/27 03:49:24;;;;;;;;;;;;;;;14.24;69.46;102125.41;4977765;28;97243;-33
2022/07/27 03:51:49;;;;;;;;;;;;;;;14.26;68.67;102123.47;4978230;28;96484;-33
2022/07/27 03:54:16;;;;;;;;;;;;;;;14.30;68.12;102132.34;4978302;28;96855;-33
2022/07/27 03:56:41;;;;;;;;;;;;;;;14.36;68.24;102124.72;4977487;28;99119;-33
2022/07/27 03:59:07;;;;;;;;;;;;;;;14.41;67.67;102133.50;4977666;28;97263;-34
2022/07/27 04:01:32;;;;;;;;;;;;;;;14.46;67.44;102127.78;4978138;28;96573;-33
2022/07/27 04:03:57;;;;;;;;;;;;;;;14.50;67.61;102132.09;4978203;28;97211;-33
2022/07/27 04:06:22;;;;;;;;;;;;;;;14.54;67.42;102117.38;4977754;28;97983;-33
2022/07/27 04:08:53;;;;;;;;;;;;;;;14.58;67.50;102124.38;4977140;28;99101;-33
2022/07/27 04:11:19;;;;;;;;;;;;;;;14.62;67.28;102131.41;4977263;28;96842;-33
2022/07/27 04:13:47;;;;;;;;;;;;;;;14.62;67.66;102125.09;4977555;28;96867;-33
2022/07/27 04:16:12;;;;;;;;;;;;;;;14.63;67.48;102126.84;4976028;28;100805;-33
2022/07/27 04:18:37;;;;;;;;;;;;;;;14.63;67.31;102124.09;4977014;28;99266;-34
2022/07/27 04:21:05;;;;;;;;;;;;;;;14.66;67.55;102132.13;4977730;28;96691;-33
2022/07/27 04:23:30;;;;;;;;;;;;;;;14.69;68.19;102137.41;4977557;28;96819;-33
2022/07/27 04:25:55;;;;;;;;;;;;;;;14.71;67.48;102146.38;4977358;28;98000;-33
2022/07/27 04:28:21;;;;;;;;;;;;;;;14.72;67.95;102137.22;4977376;28;101077;-33
2022/07/27 04:30:46;;;;;;;;;;;;;;;14.73;67.66;102147.19;4977302;28;96644;-33
2022/07/27 04:33:11;;;;;;;;;;;;;;;14.75;67.59;102139.75;4977054;28;96844;-34
2022/07/27 04:35:36;;;;;;;;;;;;;;;14.76;67.99;102136.06;4976776;28;97904;-34
2022/07/27 04:38:01;;;;;;;;;;;;;;;14.76;67.82;102144.25;4977220;28;97183;-33
2022/07/27 04:40:33;;;;;;;;;;;;;;;14.79;67.81;102141.34;4977384;28;96538;-33
2022/07/27 04:43:03;;;;;;;;;;;;;;;14.82;68.13;102143.00;4977173;28;96827;-33
2022/07/27 04:45:28;;;;;;;;;;;;;;;14.80;67.72;102134.94;4974996;28;101061;-34
2022/07/27 04:47:53;;;;;;;;;;;;;;;14.83;68.11;102134.75;4976770;28;97818;-34
2022/07/27 04:50:19;;;;;;;;;;;;;;;14.87;67.92;102146.34;4976590;28;96536;-34
2022/07/27 04:52:44;;;;;;;;;;;;;;;14.87;68.03;102151.78;4977643;28;96834;-33
2022/07/27 04:55:09;;;;;;;;;;;;;;;14.85;69.78;102151.03;4976598;28;99564;-34
2022/07/27 04:57:35;;;;;;;;;;;;;;;14.83;70.52;102152.97;4976470;28;99207;-33
2022/07/27 05:00:00;;;;;;;;;;;;;;;14.81;70.68;102152.19;4976720;28;96598;-33
2022/07/27 05:02:27;;;;;;;;;;;;;;;14.83;69.92;102156.56;4976794;28;96873;-34
2022/07/27 05:04:52;;;;;;;;;;;;;;;14.85;70.76;102162.81;4975097;28;100679;-33
2022/07/27 05:07:17;;;;;;;;;;;;;;;14.86;69.82;102160.97;4976388;28;96521;-33
2022/07/27 05:09:43;;;;;;;;;;;;;;;14.86;71.35;102159.09;4977107;28;96618;-33
2022/07/27 05:12:08;;;;;;;;;;;;;;;14.87;71.02;102154.53;4976691;28;96896;-33
2022/07/27 05:14:34;;;;;;;;;;;;;;;14.89;71.44;102155.31;4975038;28;100935;-33
2022/07/27 05:16:59;;;;;;;;;;;;;;;14.92;70.80;102154.25;4976879;28;97218;-34
2022/07/27 05:19:24;;;;;;;;;;;;;;;14.93;71.44;102159.63;4976836;28;96841;-33
2022/07/27 05:21:49;;;;;;;;;;;;;;;14.92;71.37;102165.16;4976640;28;96788;-33
2022/07/27 05:24:14;;;;;;;;;;;;;;;14.94;71.63;102166.84;4975990;28;97978;-33
2022/07/27 05:26:40;;;;;;;;;;;;;;;14.93;71.51;102167.81;4976547;28;97184;-33
2022/07/27 05:29:05;;;;;;;;;;;;;;;14.96;72.43;102173.09;4976303;28;97150;-33
2022/07/27 05:31:30;;;;;;;;;;;;;;;14.98;72.46;102171.16;4976561;28;96818;-34
2022/07/27 05:33:56;;;;;;;;;;;;;;;15.03;70.62;102173.63;4976411;28;97492;-34
2022/07/27 05:36:21;;;;;;;;;;;;;;;15.04;71.48;102176.25;4976001;28;99079;-34
2022/07/27 05:38:46;;;;;;;;;;;;;;;15.06;71.50;102173.41;4976333;28;96479;-34
2022/07/27 05:41:11;;;;;;;;;;;;;;;15.08;72.36;102182.41;4976869;28;96769;-34
2022/07/27 05:43:38;;;;;;;;;;;;;;;15.11;73.70;102175.88;4975461;28;98999;-33
2022/07/27 05:46:03;;;;;;;;;;;;;;;15.11;71.90;102178.59;4975724;28;99321;-34
2022/07/27 05:48:28;;;;;;;;;;;;;;;15.13;72.11;102182.13;4975862;28;96527;-34
2022/07/27 05:50:53;;;;;;;;;;;;;;;15.15;72.24;102178.34;4976183;28;96918;-34
2022/07/27 05:53:18;;;;;;;;;;;;;;;15.20;71.20;102169.88;4975712;28;99232;-34
2022/07/27 05:55:44;;;;;;;;;;;;;;;15.23;72.55;102177.88;4975678;28;98442;-34
2022/07/27 05:58:09;;;;;;;;;;;;;;;15.27;72.42;102180.31;4975996;28;96483;-34
2022/07/27 06:00:35;;;;;;;;;;;;;;;15.33;72.26;102181.84;4975510;28;97140;-34
2022/07/27 06:03:00;;;;;;;;;;;;;;;15.38;71.95;102181.56;4975553;28;98001;-34
2022/07/27 06:05:25;;;;;;;;;;;;;;;15.41;71.11;102181.34;4976027;28;99048;-34
2022/07/27 06:08:02;;;;;;;;;;;;;;;15.43;71.12;102182.16;4975911;28;96500;-34
2022/07/27 06:10:31;;;;;;;;;;;;;;;15.45;71.22;102191.13;4974793;28;96690;-34
2022/07/27 06:12:57;;;;;;;;;;;;;;;15.44;72.58;102176.56;4974928;28;100673;-34
2022/07/27 06:15:22;;;;;;;;;;;;;;;15.45;71.44;102186.53;4975503;28;97699;-34
2022/07/27 06:17:51;;;;;;;;;;;;;;;15.45;71.75;102192.00;4976093;28;96477;-34
2022/07/27 06:20:16;;;;;;;;;;;;;;;15.47;71.85;102191.91;4975656;28;96824;-34
2022/07/27 06:22:49;;;;;;;;;;;;;;;15.47;70.80;102200.13;4975647;28;97858;-34
2022/07/27 06:25:15;;;;;;;;;;;;;;;15.43;71.42;102193.94;4975254;28;99039;-34
2022/07/27 06:27:40;;;;;;;;;;;;;;;15.46;70.90;102199.22;4975885;28;96722;-34
2022/07/27 06:30:06;;;;;;;;;;;;;;;15.48;71.20;102208.19;4975940;28;96834;-34
2022/07/27 06:32:31;;;;;;;;;;;;;;;15.49;71.23;102209.06;4975508;28;97481;-34
2022/07/27 06:34:58;;;;;;;;;;;;;;;15.48;71.24;102213.66;4975563;28;97713;-34
2022/07/27 06:37:24;;;;;;;;;;;;;;;15.51;72.06;102215.31;4975052;28;96539;-34
2022/07/27 06:39:49;;;;;;;;;;;;;;;15.51;71.54;102218.06;4975319;28;96833;-33
2022/07/27 06:42:14;;;;;;;;;;;;;;;15.49;70.83;102217.25;4975249;28;97973;-34
2022/07/27 06:44:40;;;;;;;;;;;;;;;15.46;71.25;102217.47;4974450;28;104329;-34
2022/07/27 06:47:06;;;;;;;;;;;;;;;15.49;70.92;102209.97;4975438;28;96593;-34
2022/07/27 06:49:31;;;;;;;;;;;;;;;15.49;71.90;102212.72;4975599;28;96802;-34
2022/07/27 06:51:57;;;;;;;;;;;;;;;15.55;70.51;102213.28;4975034;28;98934;-34
2022/07/27 06:54:22;;;;;;;;;;;;;;;15.62;71.21;102214.69;4975240;28;99039;-34
2022/07/27 06:56:48;;;;;;;;;;;;;;;15.67;69.39;102207.97;4973807;28;96699;-35
2022/07/27 06:59:15;;;;;;;;;;;;;;;15.80;69.97;102218.16;4975330;28;96727;-35
2022/07/27 07:01:40;;;;;;;;;;;;;;;15.85;68.80;102214.19;4974645;28;97926;-34
2022/07/27 07:04:05;;;;;;;;;;;;;;;15.93;68.31;102221.91;4973644;28;98981;-34
2022/07/27 07:06:31;;;;;;;;;;;;;;;16.01;68.85;102215.94;4975159;28;96626;-34
2022/07/27 07:08:56;;;;;;;;;;;;;;;16.20;70.11;102221.13;4974898;28;96912;-34
2022/07/27 07:11:21;;;;;;;;;;;;;;;16.26;69.30;102215.28;4974866;28;97931;-34
2022/07/27 07:13:46;;;;;;;;;;;;;;;16.32;69.16;102214.88;4977954;28;99461;-34
2022/07/27 07:16:12;;;;;;;;;;;;;;;16.37;68.95;102210.00;4978903;28;96608;-34
2022/07/27 07:18:38;;;;;;;;;;;;;;;16.50;68.19;102216.44;4979217;28;96860;-34
2022/07/27 07:21:03;;;;;;;;;;;;;;;16.67;68.37;102214.47;4978291;28;97983;-34
2022/07/27 07:23:29;;;;;;;;;;;;;;;16.74;67.97;102218.56;4978311;28;97709;-34
2022/07/27 07:25:54;;;;;;;;;;;;;;;16.74;68.23;102222.16;4977777;28;96634;-35
2022/07/27 07:28:21;;;;;;;;;;;;;;;16.79;67.41;102223.78;4978807;28;96843;-34
2022/07/27 07:30:46;;;;;;;;;;;;;;;16.78;67.79;102222.88;4978172;28;97996;-34
2022/07/27 07:33:12;;;;;;;;;;;;;;;16.87;67.49;102227.72;4978271;28;97785;-34
2022/07/27 07:35:38;;;;;;;;;;;;;;;17.27;67.00;102221.47;4978224;28;96689;-34
2022/07/27 07:38:03;;;;;;;;;;;;;;;17.53;65.21;102220.53;4977006;28;96902;-35
2022/07/27 07:40:29;;;;;;;;;;;;;;;17.76;65.48;102224.44;4977667;28;102667;-35
2022/07/27 07:42:55;;;;;;;;;;;;;;;18.08;65.60;102225.91;4978117;28;97766;-34
2022/07/27 07:45:21;;;;;;;;;;;;;;;18.31;62.64;102221.53;4977843;28;96853;-34
2022/07/27 07:47:47;;;;;;;;;;;;;;;18.25;63.25;102226.44;4978011;28;96840;-34
2022/07/27 07:50:12;;;;;;;;;;;;;;;18.27;64.10;102237.31;4977287;28;99470;-34
2022/07/27 07:52:37;;;;;;;;;;;;;;;18.51;61.97;102231.91;4977785;28;98127;-34
2022/07/27 07:55:03;;;;;;;;;;;;;;;18.78;62.13;102230.91;4978015;28;96635;-36
2022/07/27 07:57:28;;;;;;;;;;;;;;;18.79;61.30;102222.56;4977670;28;96930;-34
2022/07/27 07:59:53;;;;;;;;;;;;;;;18.83;61.06;102224.09;4977201;28;117246;-34
2022/07/27 08:02:20;;;;;;;;;;;;;;;19.10;60.65;102221.13;4977508;28;104598;-34
2022/07/27 08:04:45;;;;;;;;;;;;;;;19.07;59.79;102232.34;4977716;28;96625;-34
2022/07/27 08:07:11;;;;;;;;;;;;;;;18.95;60.29;102222.31;4977914;28;96870;-35
2022/07/27 08:09:36;;;;;;;;;;;;;;;19.12;59.20;102222.91;4977521;28;97354;-34
2022/07/27 08:12:01;;;;;;;;;;;;;;;19.36;59.36;102223.75;4977245;28;109048;-34
2022/07/27 08:14:26;;;;;;;;;;;;;;;19.53;58.59;102217.84;4977561;28;96790;-34
2022/07/27 08:16:51;;;;;;;;;;;;;;;19.67;58.94;102235.13;4977804;28;96965;-34
2022/07/27 08:19:17;;;;;;;;;;;;;;;19.72;58.68;102238.44;4977325;28;99244;-34
2022/07/27 08:21:42;;;;;;;;;;;;;;;19.88;57.62;102243.63;4977046;28;99059;-34
2022/07/27 08:24:07;;;;;;;;;;;;;;;20.11;57.28;102239.00;4976570;28;96741;-34
2022/07/27 08:26:32;;;;;;;;;;;;;;;20.27;56.00;102234.03;4977363;28;96914;-35
2022/07/27 08:28:58;;;;;;;;;;;;;;;20.44;55.79;102240.06;4977113;28;110631;-34
2022/07/27 08:31:23;;;;;;;;;;;;;;;20.61;54.73;102238.72;4977579;28;97877;-34
2022/07/27 08:33:48;;;;;;;;;;;;;;;20.81;55.52;102231.53;4977471;28;96688;-34
2022/07/27 08:36:13;;;;;;;;;;;;;;;20.84;54.08;102239.56;4977554;28;96841;-34
2022/07/27 08:38:39;;;;;;;;;;;;;;;20.68;53.84;102248.22;4976640;28;98099;-34
2022/07/27 08:41:05;;;;;;;;;;;;;;;20.60;54.72;102245.22;4976651;28;99190;-34
2022/07/27 08:43:30;;;;;;;;;;;;;;;20.45;54.54;102247.28;4977286;28;96684;-35
2022/07/27 08:45:57;;;;;;;;;;;;;;;20.42;55.33;102247.56;4977268;28;97083;-34
2022/07/27 08:48:26;;;;;;;;;;;;;;;20.27;54.01;102245.03;4959095;28;100912;-34
2022/07/27 08:50:51;;;;;;;;;;;;;;;20.08;55.33;102242.88;4976804;28;97339;-34
2022/07/27 08:53:17;;;;;;;;;;;;;;;19.92;54.71;102239.59;4977245;28;96840;-34
2022/07/27 08:55:43;;;;;;;;;;;;;;;19.71;56.01;102244.91;4975838;28;96958;-34
2022/07/27 08:58:09;;;;;;;;;;;;;;;19.53;56.54;102241.69;4976586;28;98120;-34
2022/07/27 09:00:37;;;;;;;;;;;;;;;19.40;57.40;102243.63;4976766;28;97664;-34
2022/07/27 09:03:02;;;;;;;;;;;;;;;19.29;57.20;102249.97;4974934;28;96735;-34
2022/07/27 09:05:27;;;;;;;;;;;;;;;19.16;56.19;102240.88;4976486;28;96804;-34
2022/07/27 09:07:53;;;;;;;;;;;;;;;19.06;57.32;102241.56;4976177;28;97931;-34
2022/07/27 09:10:32;;;;;;;;;;;;;;;18.93;56.02;102248.13;4976631;28;97780;-34
2022/07/27 09:12:57;;;;;;;;;;;;;;;18.76;57.45;102246.56;4977198;28;96533;-34
2022/07/27 09:15:23;;;;;;;;;;;;;;;18.68;57.72;102244.41;4976645;28;96913;-34
2022/07/27 09:17:48;;;;;;;;;;;;;;;18.62;57.55;102247.63;4975387;28;97856;-34
2022/07/27 09:20:17;;;;;;;;;;;;;;;18.63;57.01;102249.34;4976634;28;99118;-34
2022/07/27 09:22:42;;;;;;;;;;;;;;;18.66;57.04;102249.13;4975121;28;96775;-34
2022/07/27 09:25:09;;;;;;;;;;;;;;;18.69;57.02;102248.91;4976711;28;97006;-34
2022/07/27 09:27:34;;;;;;;;;;;;;;;18.73;57.08;102242.19;4975919;28;97953;-34
2022/07/27 09:30:01;;;;;;;;;;;;;;;18.76;56.35;102241.06;4976190;28;99031;-34
2022/07/27 09:32:26;;;;;;;;;;;;;;;18.91;56.35;102253.72;4975162;28;96572;-34
2022/07/27 09:34:51;;;;;;;;;;;;;;;19.25;54.62;102235.56;4976584;28;96846;-34
2022/07/27 09:37:26;;;;;;;;;;;;;;;19.68;54.69;102234.16;4976119;28;98172;-34
2022/07/27 09:40:12;;;;;;;;;;;;;;;19.82;54.14;102235.84;4976031;28;99129;-34
2022/07/27 09:42:37;;;;;;;;;;;;;;;19.97;53.44;102236.50;4975992;28;96725;-34
2022/07/27 09:45:02;;;;;;;;;;;;;;;20.35;51.35;102234.31;4976078;28;96919;-34
2022/07/27 09:47:28;;;;;;;;;;;;;;;20.74;51.18;102231.19;4975847;28;99622;-34
2022/07/27 09:49:55;;;;;;;;;;;;;;;21.13;51.21;102221.47;4975779;28;97304;-34
2022/07/27 09:52:21;;;;;;;;;;;;;;;21.55;50.15;102221.59;4974319;28;96727;-34
2022/07/27 09:54:47;;;;;;;;;;;;;;;21.59;50.13;102224.94;4976219;28;96800;-34
2022/07/27 09:57:12;;;;;;;;;;;;;;;21.36;50.21;102224.16;4975548;28;99447;-34
2022/07/27 09:59:38;;;;;;;;;;;;;;;21.60;49.06;102238.63;4975893;28;97207;-34
2022/07/27 10:02:04;;;;;;;;;;;;;;;21.85;48.68;102234.56;4976161;28;96463;-34
2022/07/27 10:04:31;;;;;;;;;;;;;;;22.11;46.01;102222.25;4976203;28;96855;-35
2022/07/27 10:06:57;;;;;;;;;;;;;;;22.26;46.71;102220.91;4975721;28;98134;-35
2022/07/27 10:09:22;;;;;;;;;;;;;;;22.39;47.32;102220.72;4976020;28;97557;-34
2022/07/27 10:11:48;;;;;;;;;;;;;;;22.60;47.18;102223.41;4976219;28;96616;-34
2022/07/27 10:14:13;;;;;;;;;;;;;;;22.78;46.16;102215.31;4976137;28;96797;-34
2022/07/27 10:16:39;;;;;;;;;;;;;;;22.93;47.08;102213.91;4975012;28;99231;-34
2022/07/27 10:19:05;;;;;;;;;;;;;;;23.13;43.58;102214.84;4975551;28;97887;-34
2022/07/27 10:21:31;;;;;;;;;;;;;;;22.88;44.04;102214.34;4975966;28;96577;-34
2022/07/27 10:24:19;;;;;;;;;;;;;;;22.52;45.39;102213.03;4975770;28;96793;-34
2022/07/27 10:26:45;;;;;;;;;;;;;;;22.12;45.85;102208.34;4974730;28;97824;-34
2022/07/27 10:29:13;;;;;;;;;;;;;;;21.84;46.40;102212.66;4975539;28;97202;-34
2022/07/27 10:31:42;;;;;;;;;;;;;;;21.58;47.12;102213.03;4975661;28;96663;-35
2022/07/27 10:34:08;;;;;;;;;;;;;;;21.31;48.71;102223.66;4974805;28;96870;-34
2022/07/27 10:36:34;;;;;;;;;;;;;;;21.11;48.46;102215.19;4973949;28;98992;-34
2022/07/27 10:39:06;;;;;;;;;;;;;;;20.89;49.84;102215.28;4975761;28;97155;-34
2022/07/27 10:41:33;;;;;;;;;;;;;;;20.68;50.22;102209.66;4975155;28;96607;-34
2022/07/27 10:44:13;;;;;;;;;;;;;;;20.47;51.41;102212.25;4974683;28;96831;-34
2022/07/27 10:46:49;;;;;;;;;;;;;;;20.34;51.02;102220.66;4974938;28;97469;-34
2022/07/27 10:49:20;;;;;;;;;;;;;;;20.23;51.03;102217.91;4973849;28;100329;-35
2022/07/27 10:51:46;;;;;;;;;;;;;;;20.06;51.40;102219.25;4975530;28;96671;-34
2022/07/27 10:54:21;;;;;;;;;;;;;;;20.04;51.49;102226.75;4975706;28;96803;-34
2022/07/27 10:56:47;;;;;;;;;;;;;;;20.03;51.74;102225.00;4975293;28;97510;-34
2022/07/27 10:59:12;;;;;;;;;;;;;;;20.07;51.77;102227.41;4975794;28;97184;-34
2022/07/27 11:01:57;;;;;;;;;;;;;;;20.10;50.82;102231.78;4975439;28;96535;-34
2022/07/27 11:04:22;;;;;;;;;;;;;;;20.08;51.75;102222.75;4973779;28;97009;-34
2022/07/27 11:06:53;;;;;;;;;;;;;;;20.14;51.22;102222.25;4974957;28;97330;-34
2022/07/27 11:09:19;;;;;;;;;;;;;;;20.21;51.03;102229.00;4974631;28;99212;-34
2022/07/27 11:11:47;;;;;;;;;;;;;;;20.27;50.88;102228.53;4975347;28;96685;-34
2022/07/27 11:14:12;;;;;;;;;;;;;;;20.36;51.04;102233.28;4975158;28;96880;-34
2022/07/27 11:16:37;;;;;;;;;;;;;;;20.41;51.15;102235.69;4974909;28;97924;-34
2022/07/27 11:19:04;;;;;;;;;;;;;;;20.49;49.24;102230.41;4974817;28;99277;-34
2022/07/27 11:21:36;;;;;;;;;;;;;;;20.53;49.32;102229.16;4975036;28;96699;-34
2022/07/27 11:24:04;;;;;;;;;;;;;;;20.61;49.80;102241.47;4975562;28;96815;-34
2022/07/27 11:26:35;;;;;;;;;;;;;;;20.56;49.36;102234.44;4973390;28;101018;-34
2022/07/27 11:29:00;;;;;;;;;;;;;;;20.63;47.88;102226.56;4973582;28;99221;-34
2022/07/27 11:31:25;;;;;;;;;;;;;;;20.71;49.14;102224.06;4974666;28;96632;-34
2022/07/27 11:33:55;;;;;;;;;;;;;;;20.81;48.96;102224.19;4973674;28;97264;-35
2022/07/27 11:36:21;;;;;;;;;;;;;;;20.82;49.16;102212.16;4974480;28;99321;-34
2022/07/27 11:38:48;;;;;;;;;;;;;;;20.90;48.85;102223.38;4973249;28;100589;-34
2022/07/27 11:41:20;;;;;;;;;;;;;;;20.90;48.09;102214.25;4973522;28;96577;-34
2022/07/27 11:43:46;;;;;;;;;;;;;;;20.87;49.30;102209.00;4974615;28;96798;-35
2022/07/27 11:46:11;;;;;;;;;;;;;;;20.78;48.27;102210.63;4974761;28;97650;-34
2022/07/27 11:48:36;;;;;;;;;;;;;;;20.73;47.22;102208.25;4974657;28;99156;-35
2022/07/27 11:51:02;;;;;;;;;;;;;;;20.71;48.39;102204.78;4974616;28;96529;-34
2022/07/27 11:53:27;;;;;;;;;;;;;;;20.71;48.69;102210.31;4974970;28;96810;-35
2022/07/27 11:55:53;;;;;;;;;;;;;;;20.73;48.59;102218.41;4974035;28;97906;-34
2022/07/27 11:58:27;;;;;;;;;;;;;;;20.69;47.79;102217.81;4974149;28;99007;-34
2022/07/27 12:00:52;;;;;;;;;;;;;;;20.80;48.49;102219.66;4977374;28;96665;-34
2022/07/27 12:03:19;;;;;;;;;;;;;;;21.02;48.15;102223.38;4977847;28;96803;-35
2022/07/27 12:05:47;;;;;;;;;;;;;;;21.22;47.65;102217.06;4976125;28;101178;-34
2022/07/27 12:08:13;;;;;;;;;;;;;;;21.38;47.51;102217.50;4976029;28;101117;-34
2022/07/27 12:10:38;;;;;;;;;;;;;;;21.49;46.61;102212.97;4978146;28;96508;-34
2022/07/27 12:13:03;;;;;;;;;;;;;;;21.59;47.76;102209.25;4978425;28;96801;-34
2022/07/27 12:15:28;;;;;;;;;;;;;;;21.68;45.77;102203.97;4977791;28;97436;-35
2022/07/27 12:17:56;;;;;;;;;;;;;;;21.71;45.47;102200.94;4977704;28;97342;-34
2022/07/27 12:20:23;;;;;;;;;;;;;;;21.87;46.22;102201.34;4975849;28;96634;-35
2022/07/27 12:22:52;;;;;;;;;;;;;;;22.08;44.27;102204.09;4977653;28;96749;-34
2022/07/27 12:25:17;;;;;;;;;;;;;;;22.40;45.17;102203.13;4975755;28;100955;-34
2022/07/27 12:27:53;;;;;;;;;;;;;;;22.62;45.44;102202.94;4977370;28;97704;-34
2022/07/27 12:30:26;;;;;;;;;;;;;;;22.59;44.56;102197.66;4976041;28;96721;-35
2022/07/27 12:32:51;;;;;;;;;;;;;;;22.68;43.35;102195.97;4977633;28;96678;-34